Aosta Airport LIMW

Flugplatz Daten

Name: Aosta Airport

Ident: LIMW

Lat: 45,73849869

Long: 7,368720055

Platzhöhe: 1791 ft

IataCode: AOT

City: Aosta

Homepage: http://www.avda-aosta.it/default_eng.asp

Metar

2021/08/05 12:50
LIMW 051250Z AUTO 27009KT 240V320 9999 BKN095 27/07 Q1008

Taf

Gewünschte Webcam nicht vorhanden? Dann fügen Sie eine hinzu. Sie wird dann so schnell wie möglich freigeschaltet
Url: Title: